Observation data for Denver City on 10/17/2019      Previous  Date       Current Mesonet Observations  Soil Data  Daily Summary Page  Observations in Plain Language
KDVS 170500Z 21007KT 08/M02 A3014 RMK A01 T00781016  RH  052%=      5-min Rain = 0
KDVS 170505Z 20008KT 08/M02 A3014 RMK A01 T00781016  RH  052%=      5-min Rain = 0
KDVS 170510Z 20008KT 08/M02 A3014 RMK A01 T00791015  RH  052%=      5-min Rain = 0
KDVS 170515Z 20008KT 08/M01 A3014 RMK A01 T00791014  RH  052%=      5-min Rain = 0
KDVS 170520Z 21007KT 08/M01 A3013 RMK A01 T00781014  RH  053%=      5-min Rain = 0
KDVS 170525Z 21006KT 08/M01 A3013 RMK A01 T00751013  RH  054%=      5-min Rain = 0
KDVS 170530Z 21006KT 07/M01 A3013 RMK A01 T00721013  RH  055%=      5-min Rain = 0
KDVS 170535Z 21007KT 07/M01 A3013 RMK A01 T00711013  RH  055%=      5-min Rain = 0
KDVS 170540Z 21007KT 07/M02 A3013 RMK A01 T00711015  RH  055%=      5-min Rain = 0
KDVS 170545Z 21007KT 07/M02 A3013 RMK A01 T00691016  RH  055%=      5-min Rain = 0
KDVS 170550Z 21007KT 07/M02 A3013 RMK A01 T00681017  RH  055%=      5-min Rain = 0
KDVS 170555Z 22007KT 07/M02 A3013 RMK A01 T00691017  RH  055%=      5-min Rain = 0
KDVS 170600Z 23007KT 07/M02 A3013 RMK A01 T00721017  RH  054%=      5-min Rain = 0
KDVS 170605Z 23006KT 07/M02 A3013 RMK A01 T00741018  RH  053%=      5-min Rain = 0
KDVS 170610Z 24006KT 07/M02 A3013 RMK A01 T00721017  RH  053%=      5-min Rain = 0
KDVS 170615Z 23007KT 07/M02 A3013 RMK A01 T00721018  RH  053%=      5-min Rain = 0
KDVS 170620Z 22007KT 07/M02 A3013 RMK A01 T00731019  RH  053%=      5-min Rain = 0
KDVS 170625Z 23007KT 07/M02 A3013 RMK A01 T00731019  RH  052%=      5-min Rain = 0
KDVS 170630Z 24007KT 07/M02 A3013 RMK A01 T00721019  RH  053%=      5-min Rain = 0
KDVS 170635Z 25007KT 07/M02 A3013 RMK A01 T00691020  RH  053%=      5-min Rain = 0
KDVS 170640Z 25007KT 07/M02 A3013 RMK A01 T00671021  RH  054%=      5-min Rain = 0
KDVS 170645Z 24007KT 07/M02 A3013 RMK A01 T00661021  RH  054%=      5-min Rain = 0
KDVS 170650Z 25007KT 06/M02 A3013 RMK A01 T00641020  RH  055%=      5-min Rain = 0
KDVS 170655Z 25008KT 06/M02 A3012 RMK A01 T00631019  RH  056%=      5-min Rain = 0
KDVS 170700Z 26007KT 06/M02 A3012 RMK A01 T00631018  RH  057%=      5-min Rain = 0
KDVS 170705Z 25007KT 06/M02 A3012 RMK A01 T00631016  RH  057%=      5-min Rain = 0
KDVS 170710Z 25006KT 06/M01 A3012 RMK A01 T00641014  RH  058%=      5-min Rain = 0
KDVS 170715Z 26007KT 07/M01 A3012 RMK A01 T00651012  RH  058%=      5-min Rain = 0
KDVS 170720Z 26007KT 06/M01 A3012 RMK A01 T00641011  RH  059%=      5-min Rain = 0
KDVS 170725Z 26007KT 06/M01 A3012 RMK A01 T00641011  RH  059%=      5-min Rain = 0
KDVS 170730Z 26007KT 06/M01 A3012 RMK A01 T00641011  RH  059%=      5-min Rain = 0
KDVS 170735Z 26006KT 07/M01 A3012 RMK A01 T00651012  RH  059%=      5-min Rain = 0
KDVS 170740Z 26007KT 07/M01 A3012 RMK A01 T00651012  RH  058%=      5-min Rain = 0
KDVS 170745Z 26007KT 07/M01 A3012 RMK A01 T00651012  RH  058%=      5-min Rain = 0
KDVS 170750Z 25007KT 07/M01 A3012 RMK A01 T00671011  RH  058%=      5-min Rain = 0
KDVS 170755Z 25006KT 07/M01 A3012 RMK A01 T00681011  RH  058%=      5-min Rain = 0
KDVS 170800Z 25007KT 07/M01 A3011 RMK A01 T00661011  RH  058%=      5-min Rain = 0
KDVS 170805Z 25007KT 07/M01 A3011 RMK A01 T00661010  RH  059%=      5-min Rain = 0
KDVS 170810Z 25007KT 07/M01 A3011 RMK A01 T00661009  RH  059%=      5-min Rain = 0
KDVS 170815Z 25007KT 07/M01 A3011 RMK A01 T00661009  RH  059%=      5-min Rain = 0
KDVS 170820Z 25007KT 07/M01 A3011 RMK A01 T00651009  RH  060%=      5-min Rain = 0
KDVS 170825Z 25007KT 07/M01 A3011 RMK A01 T00671008  RH  060%=      5-min Rain = 0
KDVS 170830Z 26007KT 07/M01 A3011 RMK A01 T00701007  RH  059%=      5-min Rain = 0
KDVS 170835Z 26007KT 07/M01 A301 RMK A01 T00721006  RH  058%=      5-min Rain = 0
KDVS 170840Z 25006KT 07/M01 A301 RMK A01 T00721005  RH  058%=      5-min Rain = 0
KDVS 170845Z 25006KT 07/M01 A301 RMK A01 T00701006  RH  059%=      5-min Rain = 0
KDVS 170850Z 25006KT 07/M01 A301 RMK A01 T00661005  RH  061%=      5-min Rain = 0
KDVS 170855Z 25006KT 06/M00 A3009 RMK A01 T00641004  RH  062%=      5-min Rain = 0
KDVS 170900Z 26007KT 06/M00 A3009 RMK A01 T00641003  RH  063%=      5-min Rain = 0
KDVS 170905Z 26007KT 06/M00 A3009 RMK A01 T00631002  RH  064%=      5-min Rain = 0
KDVS 170910Z 27006KT 06/M00 A3009 RMK A01 T00621003  RH  064%=      5-min Rain = 0
KDVS 170915Z 27005KT 06/M00 A3009 RMK A01 T00611002  RH  065%=      5-min Rain = 0
KDVS 170920Z 28006KT 06/M00 A3009 RMK A01 T00601002  RH  066%=      5-min Rain = 0
KDVS 170925Z 28007KT 06/M00 A3009 RMK A01 T00581002  RH  066%=      5-min Rain = 0
KDVS 170930Z 29006KT 05/M00 A3009 RMK A01 T00541003  RH  068%=      5-min Rain = 0
KDVS 170935Z 29004KT 05/M00 A3009 RMK A01 T00511004  RH  068%=      5-min Rain = 0
KDVS 170940Z 29003KT 05/M01 A3008 RMK A01 T00481006  RH  069%=      5-min Rain = 0
KDVS 170945Z 29003KT 05/M01 A3008 RMK A01 T00451007  RH  070%=      5-min Rain = 0
KDVS 170950Z 30004KT 04/M01 A3008 RMK A01 T00431007  RH  071%=      5-min Rain = 0
KDVS 170955Z 30004KT 04/M01 A3008 RMK A01 T00421007  RH  071%=      5-min Rain = 0
KDVS 171000Z 30004KT 04/M01 A3007 RMK A01 T00411007  RH  071%=      5-min Rain = 0
KDVS 171005Z 30004KT 04/M01 A3007 RMK A01 T00401007  RH  072%=      5-min Rain = 0
KDVS 171010Z 30003KT 04/M01 A3007 RMK A01 T00401008  RH  072%=      5-min Rain = 0
KDVS 171015Z 30001KT 04/M01 A3007 RMK A01 T00391008  RH  072%=      5-min Rain = 0
KDVS 171020Z 30000KT 04/M01 A3007 RMK A01 T00351012  RH  072%=      5-min Rain = 0
KDVS 171025Z 30000KT 03/M01 A3007 RMK A01 T00301011  RH  075%=      5-min Rain = 0
KDVS 171030Z 22002KT 04/M01 A3007 RMK A01 T00351005  RH  076%=      5-min Rain = 0
KDVS 171035Z 21003KT 04/M00 A3007 RMK A01 T00381004  RH  075%=      5-min Rain = 0
KDVS 171040Z 16004KT 03/M01 A3007 RMK A01 T00311014  RH  073%=      5-min Rain = 0
KDVS 171045Z 16005KT 02/M01 A3007 RMK A01 T00231013  RH  078%=      5-min Rain = 0
KDVS 171050Z 16005KT 02/M01 A3007 RMK A01 T00221010  RH  080%=      5-min Rain = 0
KDVS 171055Z 17006KT 02/M01 A3007 RMK A01 T00231007  RH  081%=      5-min Rain = 0
KDVS 171100Z 17005KT 03/M00 A3007 RMK A01 T00261004  RH  081%=      5-min Rain = 0
KDVS 171105Z 19005KT 03/M00 A3007 RMK A01 T00291002  RH  081%=      5-min Rain = 0
KDVS 171110Z 20005KT 03/M00 A3007 RMK A01 T00331001  RH  079%=      5-min Rain = 0
KDVS 171115Z 21006KT 04/M00 A3007 RMK A01 T00371001  RH  077%=      5-min Rain = 0
KDVS 171120Z 22006KT 04/M00 A3007 RMK A01 T00381002  RH  076%=      5-min Rain = 0
KDVS 171125Z 23006KT 04/M00 A3008 RMK A01 T00381002  RH  076%=      5-min Rain = 0
KDVS 171130Z 23006KT 04/M00 A3008 RMK A01 T00381001  RH  076%=      5-min Rain = 0
KDVS 171135Z 25006KT 04/00 A3008 RMK A01 T00400001  RH  076%=      5-min Rain = 0
KDVS 171140Z 26006KT 04/00 A3008 RMK A01 T003900-0  RH  076%=      5-min Rain = 0
KDVS 171145Z 27006KT 04/00 A3008 RMK A01 T00390001  RH  077%=      5-min Rain = 0
KDVS 171150Z 27005KT 04/M00 A3008 RMK A01 T00381001  RH  077%=      5-min Rain = 0
KDVS 171155Z 27005KT 04/00 A3008 RMK A01 T003600-0  RH  078%=      5-min Rain = 0
KDVS 171200Z 27005KT 04/00 A3008 RMK A01 T00370002  RH  079%=      5-min Rain = 0
KDVS 171205Z 26007KT 04/01 A3007 RMK A01 T00420007  RH  079%=      5-min Rain = 0
KDVS 171210Z 25006KT 05/01 A3007 RMK A01 T00470009  RH  078%=      5-min Rain = 0
KDVS 171215Z 24006KT 05/01 A3007 RMK A01 T00500010  RH  076%=      5-min Rain = 0
KDVS 171220Z 23006KT 05/01 A3007 RMK A01 T00520009  RH  075%=      5-min Rain = 0
KDVS 171225Z 23006KT 05/01 A3006 RMK A01 T00520007  RH  074%=      5-min Rain = 0
KDVS 171230Z 22006KT 05/01 A3006 RMK A01 T00480005  RH  074%=      5-min Rain = 0
KDVS 171235Z 23005KT 05/01 A3006 RMK A01 T00460005  RH  075%=      5-min Rain = 0
KDVS 171240Z 24007KT 05/01 A3006 RMK A01 T00450005  RH  076%=      5-min Rain = 0
KDVS 171245Z 25007KT 05/01 A3007 RMK A01 T00450005  RH  076%=      5-min Rain = 0
KDVS 171250Z 25007KT 05/01 A3007 RMK A01 T00480007  RH  076%=      5-min Rain = 0
KDVS 171255Z 26008KT 05/01 A3007 RMK A01 T00520007  RH  074%=      5-min Rain = 0
KDVS 171300Z 25007KT 05/01 A3007 RMK A01 T00520008  RH  074%=      5-min Rain = 0
KDVS 171305Z 25007KT 06/01 A3007 RMK A01 T00550008  RH  073%=      5-min Rain = 0
KDVS 171310Z 25006KT 06/01 A3007 RMK A01 T00560008  RH  072%=      5-min Rain = 0
KDVS 171315Z 25007KT 06/01 A3007 RMK A01 T00570008  RH  071%=      5-min Rain = 0
KDVS 171320Z 25008KT 06/01 A3007 RMK A01 T00590008  RH  070%=      5-min Rain = 0
KDVS 171325Z 24006KT 06/01 A3007 RMK A01 T00620008  RH  069%=      5-min Rain = 0
KDVS 171330Z 24006KT 06/01 A3007 RMK A01 T00640009  RH  069%=      5-min Rain = 0
KDVS 171335Z 24006KT 07/01 A3007 RMK A01 T00670010  RH  068%=      5-min Rain = 0
KDVS 171340Z 24006KT 07/01 A3007 RMK A01 T00710010  RH  066%=      5-min Rain = 0
KDVS 171345Z 23005KT 08/01 A3007 RMK A01 T00760009  RH  064%=      5-min Rain = 0
KDVS 171350Z 22005KT 08/01 A3007 RMK A01 T00810009  RH  061%=      5-min Rain = 0
KDVS 171355Z 22005KT 09/01 A3007 RMK A01 T00870008  RH  058%=      5-min Rain = 0
KDVS 171400Z 22005KT 10/01 A3007 RMK A01 T00950007  RH  055%=      5-min Rain = 0
KDVS 171405Z 21006KT 10/01 A3007 RMK A01 T01000009  RH  054%=      5-min Rain = 0
KDVS 171410Z 21004KT 10/01 A3007 RMK A01 T01040011  RH  053%=      5-min Rain = 0
KDVS 171415Z 21005KT 11/01 A3007 RMK A01 T01100014  RH  053%=      5-min Rain = 0
KDVS 171420Z 21006KT 12/01 A3007 RMK A01 T01150013  RH  050%=      5-min Rain = 0
KDVS 171425Z 21007KT 12/01 A3007 RMK A01 T01190010  RH  048%=      5-min Rain = 0
KDVS 171430Z 21005KT 12/01 A3007 RMK A01 T01230010  RH  047%=      5-min Rain = 0
KDVS 171435Z 21006KT 13/01 A3007 RMK A01 T01270011  RH  046%=      5-min Rain = 0
KDVS 171440Z 21008KT 13/01 A3007 RMK A01 T01310009  RH  044%=      5-min Rain = 0
KDVS 171445Z 20007G12KT 14/01 A3008 RMK A01 T01350011  RH  043%=      5-min Rain = 0
KDVS 171450Z 20009KT 14/01 A3008 RMK A01 T01350010  RH  043%=      5-min Rain = 0
KDVS 171455Z 20009KT 14/01 A3008 RMK A01 T01360011  RH  043%=      5-min Rain = 0
KDVS 171500Z 21010KT 14/01 A3008 RMK A01 T01420011  RH  041%=      5-min Rain = 0
KDVS 171505Z 20010KT 15/01 A3008 RMK A01 T01470008  RH  039%=      5-min Rain = 0
KDVS 171510Z 21011KT 15/01 A3008 RMK A01 T01500006  RH  038%=      5-min Rain = 0
KDVS 171515Z 21010KT 15/01 A3008 RMK A01 T01520006  RH  037%=      5-min Rain = 0
KDVS 171520Z 21010KT 16/01 A3008 RMK A01 T01560006  RH  037%=      5-min Rain = 0
KDVS 171525Z 21008KT 16/01 A3007 RMK A01 T01610006  RH  035%=      5-min Rain = 0
KDVS 171530Z 22010KT 16/00 A3007 RMK A01 T01630001  RH  034%=      5-min Rain = 0
KDVS 171535Z 22011KT 16/M00 A3007 RMK A01 T01631002  RH  033%=      5-min Rain = 0
KDVS 171540Z 21010KT 17/00 A3007 RMK A01 T016700-0  RH  032%=      5-min Rain = 0
KDVS 171545Z 21009KT 17/M00 A3006 RMK A01 T01701001  RH  032%=      5-min Rain = 0
KDVS 171550Z 20009KT 17/00 A3006 RMK A01 T01730000  RH  031%=      5-min Rain = 0
KDVS 171555Z 21011KT 17/M01 A3006 RMK A01 T01741007  RH  030%=      5-min Rain = 0
KDVS 171600Z 21010KT 18/M00 A3006 RMK A01 T01761003  RH  030%=      5-min Rain = 0
KDVS 171605Z 21010KT 18/00 A3006 RMK A01 T017900-0  RH  030%=      5-min Rain = 0
KDVS 171610Z 20011KT 18/00 A3006 RMK A01 T01810002  RH  030%=      5-min Rain = 0
KDVS 171615Z 20012KT 18/01 A3006 RMK A01 T01820005  RH  031%=      5-min Rain = 0
KDVS 171620Z 20010KT 19/01 A3005 RMK A01 T01850006  RH  030%=      5-min Rain = 0
KDVS 171625Z 20011KT 19/01 A3005 RMK A01 T01870007  RH  030%=      5-min Rain = 0
KDVS 171630Z 20010KT 19/01 A3005 RMK A01 T01900009  RH  030%=      5-min Rain = 0
KDVS 171635Z 21011KT 19/01 A3005 RMK A01 T01920009  RH  030%=      5-min Rain = 0
KDVS 171640Z 21011KT 19/01 A3005 RMK A01 T01920010  RH  030%=      5-min Rain = 0
KDVS 171645Z 20010KT 20/01 A3005 RMK A01 T01950013  RH  030%=      5-min Rain = 0
KDVS 171650Z 20010KT 20/02 A3005 RMK A01 T01990015  RH  030%=      5-min Rain = 0
KDVS 171655Z 21010G16KT 20/02 A3005 RMK A01 T01980015  RH  030%=      5-min Rain = 0
KDVS 171700Z 21009G14KT 20/02 A3004 RMK A01 T01990017  RH  030%=      5-min Rain = 0
KDVS 171705Z 21010G15KT 20/02 A3004 RMK A01 T02040020  RH  030%=      5-min Rain = 0
KDVS 171710Z 22009G15KT 20/02 A3004 RMK A01 T02020017  RH  030%=      5-min Rain = 0
KDVS 171715Z 22009KT 20/02 A3004 RMK A01 T02020021  RH  031%=      5-min Rain = 0
KDVS 171720Z 20009KT 21/03 A3004 RMK A01 T02070028  RH  031%=      5-min Rain = 0
KDVS 171725Z 21008G13KT 21/03 A3004 RMK A01 T02110026  RH  030%=      5-min Rain = 0
KDVS 171730Z 21009KT 21/03 A3004 RMK A01 T02120030  RH  031%=      5-min Rain = 0
KDVS 171735Z 20010KT 21/03 A3004 RMK A01 T02130027  RH  030%=      5-min Rain = 0
KDVS 171740Z 21009KT 21/03 A3003 RMK A01 T02130030  RH  030%=      5-min Rain = 0
KDVS 171745Z 20010KT 21/03 A3003 RMK A01 T02140028  RH  030%=      5-min Rain = 0
KDVS 171750Z 19009G15KT 22/03 A3003 RMK A01 T02170031  RH  030%=      5-min Rain = 0
KDVS 171755Z 20011KT 22/03 A3002 RMK A01 T02190029  RH  029%=      5-min Rain = 0
KDVS 171800Z 21010KT 22/02 A3002 RMK A01 T02210024  RH  028%=      5-min Rain = 0
KDVS 171805Z 22009G15KT 22/02 A3002 RMK A01 T02240024  RH  027%=      5-min Rain = 0
KDVS 171810Z 21006KT 23/03 A3001 RMK A01 T02250027  RH  028%=      5-min Rain = 0
KDVS 171815Z 21009KT 23/03 A3001 RMK A01 T02300029  RH  027%=      5-min Rain = 0
KDVS 171820Z 21008G19KT 23/03 A3001 RMK A01 T02270026  RH  027%=      5-min Rain = 0
KDVS 171825Z 22007G13KT 23/02 A30 RMK A01 T02300019  RH  025%=      5-min Rain = 0
KDVS 171830Z 20009KT 23/03 A30 RMK A01 T02320025  RH  026%=      5-min Rain = 0
KDVS 171835Z 21009G14KT 23/02 A30 RMK A01 T02320024  RH  026%=      5-min Rain = 0
KDVS 171840Z 21008KT 24/02 A2999 RMK A01 T02360023  RH  025%=      5-min Rain = 0
KDVS 171845Z 22008KT 24/03 A2999 RMK A01 T02390026  RH  025%=      5-min Rain = 0
KDVS 171850Z 21009KT 24/03 A2999 RMK A01 T02390029  RH  026%=      5-min Rain = 0
KDVS 171855Z 23009KT 24/02 A2998 RMK A01 T02390020  RH  024%=      5-min Rain = 0
KDVS 171900Z 19009KT 24/03 A2998 RMK A01 T02400028  RH  025%=      5-min Rain = 0
KDVS 171905Z 20006KT 24/03 A2997 RMK A01 T02420030  RH  026%=      5-min Rain = 0
KDVS 171910Z 19009G15KT 24/04 A2997 RMK A01 T02420036  RH  027%=      5-min Rain = 0
KDVS 171915Z 21010G15KT 24/03 A2997 RMK A01 T02410030  RH  026%=      5-min Rain = 0
KDVS 171920Z 20010G15KT 24/04 A2996 RMK A01 T02420037  RH  027%=      5-min Rain = 0
KDVS 171925Z 18009KT 24/04 A2996 RMK A01 T02440035  RH  026%=      5-min Rain = 0
KDVS 171930Z 21011KT 24/03 A2995 RMK A01 T02440029  RH  025%=      5-min Rain = 0
KDVS 171935Z 21009G15KT 24/03 A2995 RMK A01 T02440031  RH  025%=      5-min Rain = 0
KDVS 171940Z 21008G13KT 24/03 A2995 RMK A01 T02440034  RH  026%=      5-min Rain = 0
KDVS 171945Z 20009KT 25/03 A2994 RMK A01 T02490034  RH  025%=      5-min Rain = 0
KDVS 171950Z 21009G16KT 25/03 A2994 RMK A01 T02480030  RH  025%=      5-min Rain = 0
KDVS 171955Z 19010KT 25/03 A2994 RMK A01 T02480032  RH  025%=      5-min Rain = 0
KDVS 172000Z 19012KT 25/03 A2993 RMK A01 T02490034  RH  025%=      5-min Rain = 0
KDVS 172005Z 19009G17KT 25/03 A2993 RMK A01 T02490032  RH  025%=      5-min Rain = 0
KDVS 172010Z 18010G16KT 25/03 A2993 RMK A01 T02500029  RH  024%=      5-min Rain = 0
KDVS 172015Z 21010G15KT 25/02 A2992 RMK A01 T02510018  RH  022%=      5-min Rain = 0
KDVS 172020Z 21011KT 25/02 A2992 RMK A01 T02540020  RH  022%=      5-min Rain = 0
KDVS 172025Z 20009G15KT 25/02 A2992 RMK A01 T02530016  RH  022%=      5-min Rain = 0
KDVS 172030Z 20012G18KT 25/02 A2992 RMK A01 T02540020  RH  022%=      5-min Rain = 0
KDVS 172035Z 21007G12KT 25/02 A2991 RMK A01 T02540018  RH  022%=      5-min Rain = 0
KDVS 172040Z 19013KT 26/01 A2991 RMK A01 T02570008  RH  020%=      5-min Rain = 0
KDVS 172045Z 22009KT 26/01 A2991 RMK A01 T02560010  RH  020%=      5-min Rain = 0
KDVS 172050Z 19012KT 26/01 A2991 RMK A01 T02580009  RH  020%=      5-min Rain = 0
KDVS 172055Z 20009G16KT 26/01 A2991 RMK A01 T02570008  RH  020%=      5-min Rain = 0
KDVS 172100Z 21011G18KT 26/01 A2991 RMK A01 T02570008  RH  020%=      5-min Rain = 0
KDVS 172105Z 20011KT 26/00 A2991 RMK A01 T02570001  RH  019%=      5-min Rain = 0
KDVS 172110Z 19011G17KT 26/01 A2991 RMK A01 T02570014  RH  021%=      5-min Rain = 0
KDVS 172115Z 20010G18KT 26/01 A2991 RMK A01 T02570012  RH  021%=      5-min Rain = 0
KDVS 172120Z 19012G17KT 26/01 A2991 RMK A01 T02580008  RH  020%=      5-min Rain = 0
KDVS 172125Z 20012G17KT 26/00 A2991 RMK A01 T02570004  RH  019%=      5-min Rain = 0
KDVS 172130Z 20011KT 26/01 A299 RMK A01 T02590008  RH  020%=      5-min Rain = 0
KDVS 172135Z 19013KT 26/01 A299 RMK A01 T02600008  RH  020%=      5-min Rain = 0
KDVS 172140Z 22011KT 26/01 A299 RMK A01 T02570005  RH  019%=      5-min Rain = 0
KDVS 172145Z 19010KT 26/00 A299 RMK A01 T02580004  RH  019%=      5-min Rain = 0
KDVS 172150Z 20011KT 26/00 A299 RMK A01 T02590004  RH  019%=      5-min Rain = 0
KDVS 172155Z 20012KT 26/00 A299 RMK A01 T02570002  RH  019%=      5-min Rain = 0
KDVS 172200Z 19012G19KT 26/01 A2989 RMK A01 T02570009  RH  020%=      5-min Rain = 0
KDVS 172205Z 19012KT 26/01 A2989 RMK A01 T02560010  RH  020%=      5-min Rain = 0
KDVS 172210Z 19009G14KT 26/01 A2989 RMK A01 T02550013  RH  021%=      5-min Rain = 0
KDVS 172215Z 19012KT 26/01 A2989 RMK A01 T02560013  RH  021%=      5-min Rain = 0
KDVS 172220Z 18011G17KT 26/01 A2989 RMK A01 T02550014  RH  021%=      5-min Rain = 0
KDVS 172225Z 18012G18KT 26/01 A2989 RMK A01 T02550011  RH  021%=      5-min Rain = 0
KDVS 172230Z 20012KT 25/01 A2989 RMK A01 T02520007  RH  020%=      5-min Rain = 0
KDVS 172235Z 19010G15KT 25/01 A2988 RMK A01 T02520010  RH  021%=      5-min Rain = 0
KDVS 172240Z 19013G18KT 25/00 A2988 RMK A01 T02510003  RH  020%=      5-min Rain = 0
KDVS 172245Z 18011KT 25/00 A2988 RMK A01 T02510004  RH  020%=      5-min Rain = 0
KDVS 172250Z 17013KT 25/00 A2988 RMK A01 T02500001  RH  020%=      5-min Rain = 0
KDVS 172255Z 18012G17KT 25/M00 A2988 RMK A01 T02491001  RH  019%=      5-min Rain = 0
KDVS 172300Z 19011G16KT 25/00 A2988 RMK A01 T024800-0  RH  020%=      5-min Rain = 0
KDVS 172305Z 18012KT 25/00 A2988 RMK A01 T02470000  RH  020%=      5-min Rain = 0
KDVS 172310Z 18012KT 25/M00 A2988 RMK A01 T02461002  RH  020%=      5-min Rain = 0
KDVS 172315Z 20011KT 25/00 A2988 RMK A01 T02460001  RH  020%=      5-min Rain = 0
KDVS 172320Z 18013KT 24/00 A2988 RMK A01 T02440002  RH  021%=      5-min Rain = 0
KDVS 172325Z 18011KT 24/00 A2988 RMK A01 T02410003  RH  021%=      5-min Rain = 0
KDVS 172330Z 18011G16KT 24/00 A2987 RMK A01 T02390001  RH  021%=      5-min Rain = 0
KDVS 172335Z 17011KT 24/00 A2987 RMK A01 T02360000  RH  021%=      5-min Rain = 0
KDVS 172340Z 17011KT 23/M00 A2987 RMK A01 T02341003  RH  021%=      5-min Rain = 0
KDVS 172345Z 17011KT 23/M01 A2986 RMK A01 T02321005  RH  021%=      5-min Rain = 0
KDVS 172350Z 18010KT 23/M00 A2986 RMK A01 T02281004  RH  022%=      5-min Rain = 0
KDVS 172355Z 18009KT 23/M00 A2986 RMK A01 T02251003  RH  022%=      5-min Rain = 0
KDVS 180000Z 18008KT 22/M00 A2986 RMK A01 T02201002  RH  023%=      5-min Rain = 0
KDVS 180005Z 18007KT 21/00 A2986 RMK A01 T02140000  RH  024%=      5-min Rain = 0
KDVS 180010Z 19007KT 21/00 A2987 RMK A01 T02090002  RH  025%=      5-min Rain = 0
KDVS 180015Z 19007KT 21/00 A2987 RMK A01 T02070003  RH  026%=      5-min Rain = 0
KDVS 180020Z 19008KT 20/01 A2987 RMK A01 T02030005  RH  027%=      5-min Rain = 0
KDVS 180025Z 18008KT 20/01 A2987 RMK A01 T01970006  RH  028%=      5-min Rain = 0
KDVS 180030Z 19007KT 19/01 A2987 RMK A01 T01900005  RH  029%=      5-min Rain = 0
KDVS 180035Z 19007KT 19/01 A2987 RMK A01 T01880007  RH  030%=      5-min Rain = 0
KDVS 180040Z 19006KT 18/01 A2987 RMK A01 T01840009  RH  031%=      5-min Rain = 0
KDVS 180045Z 19007KT 18/01 A2987 RMK A01 T01810010  RH  032%=      5-min Rain = 0
KDVS 180050Z 19007KT 18/01 A2987 RMK A01 T01770011  RH  033%=      5-min Rain = 0
KDVS 180055Z 19007KT 17/01 A2987 RMK A01 T01740010  RH  033%=      5-min Rain = 0
KDVS 180100Z 18008KT 17/01 A2987 RMK A01 T01720012  RH  034%=      5-min Rain = 0
KDVS 180105Z 18008KT 17/01 A2987 RMK A01 T01680013  RH  035%=      5-min Rain = 0
KDVS 180110Z 19008KT 17/01 A2987 RMK A01 T01660013  RH  036%=      5-min Rain = 0
KDVS 180115Z 19008KT 17/01 A2987 RMK A01 T01670012  RH  035%=      5-min Rain = 0
KDVS 180120Z 18008KT 17/01 A2987 RMK A01 T01680011  RH  035%=      5-min Rain = 0
KDVS 180125Z 18008KT 17/01 A2987 RMK A01 T01680011  RH  035%=      5-min Rain = 0
KDVS 180130Z 18009KT 17/01 A2987 RMK A01 T01670011  RH  035%=      5-min Rain = 0
KDVS 180135Z 18008KT 17/01 A2987 RMK A01 T01680010  RH  035%=      5-min Rain = 0
KDVS 180140Z 18008KT 17/01 A2987 RMK A01 T01660011  RH  035%=      5-min Rain = 0
KDVS 180145Z 18008KT 16/01 A2987 RMK A01 T01630012  RH  037%=      5-min Rain = 0
KDVS 180150Z 18008KT 16/01 A2987 RMK A01 T01610012  RH  037%=      5-min Rain = 0
KDVS 180155Z 18008KT 16/01 A2986 RMK A01 T01610012  RH  037%=      5-min Rain = 0
KDVS 180200Z 18008KT 16/01 A2986 RMK A01 T01580014  RH  038%=      5-min Rain = 0
KDVS 180205Z 17007KT 15/02 A2987 RMK A01 T01530017  RH  040%=      5-min Rain = 0
KDVS 180210Z 17007KT 15/02 A2987 RMK A01 T01470017  RH  042%=      5-min Rain = 0
KDVS 180215Z 17006KT 15/02 A2987 RMK A01 T01450017  RH  043%=      5-min Rain = 0
KDVS 180220Z 17007KT 14/02 A2987 RMK A01 T01420018  RH  044%=      5-min Rain = 0
KDVS 180225Z 18007KT 14/02 A2987 RMK A01 T01410018  RH  044%=      5-min Rain = 0
KDVS 180230Z 19006KT 14/02 A2988 RMK A01 T01430019  RH  044%=      5-min Rain = 0
KDVS 180235Z 19007KT 14/02 A2988 RMK A01 T01440021  RH  044%=      5-min Rain = 0
KDVS 180240Z 18008KT 14/02 A2988 RMK A01 T01440019  RH  043%=      5-min Rain = 0
KDVS 180245Z 18008KT 14/02 A2988 RMK A01 T01430019  RH  044%=      5-min Rain = 0
KDVS 180250Z 17008KT 14/02 A2987 RMK A01 T01430019  RH  044%=      5-min Rain = 0
KDVS 180255Z 17007KT 14/02 A2987 RMK A01 T01410019  RH  044%=      5-min Rain = 0
KDVS 180300Z 18007KT 14/02 A2987 RMK A01 T01350020  RH  046%=      5-min Rain = 0
KDVS 180305Z 18007KT 13/02 A2987 RMK A01 T01320021  RH  048%=      5-min Rain = 0
KDVS 180310Z 17008KT 13/02 A2987 RMK A01 T01340022  RH  047%=      5-min Rain = 0
KDVS 180315Z 17008KT 14/02 A2987 RMK A01 T01380021  RH  046%=      5-min Rain = 0
KDVS 180320Z 18008KT 14/02 A2987 RMK A01 T01420021  RH  044%=      5-min Rain = 0
KDVS 180325Z 18009KT 14/02 A2988 RMK A01 T01440020  RH  044%=      5-min Rain = 0
KDVS 180330Z 18009KT 15/02 A2988 RMK A01 T01460019  RH  043%=      5-min Rain = 0
KDVS 180335Z 18009KT 15/02 A2988 RMK A01 T01460019  RH  043%=      5-min Rain = 0
KDVS 180340Z 18008KT 14/02 A2988 RMK A01 T01440019  RH  044%=      5-min Rain = 0
KDVS 180345Z 18008KT 14/02 A2988 RMK A01 T01420019  RH  044%=      5-min Rain = 0
KDVS 180350Z 18008KT 14/02 A2988 RMK A01 T01400020  RH  045%=      5-min Rain = 0
KDVS 180355Z 18007KT 14/02 A2988 RMK A01 T01370020  RH  046%=      5-min Rain = 0
KDVS 180400Z 19007KT 14/02 A2988 RMK A01 T01360021  RH  047%=      5-min Rain = 0
KDVS 180405Z 19007KT 14/02 A2988 RMK A01 T01350023  RH  047%=      5-min Rain = 0
KDVS 180410Z 19006KT 13/02 A2988 RMK A01 T01340023  RH  048%=      5-min Rain = 0
KDVS 180415Z 18006KT 13/02 A2988 RMK A01 T01330023  RH  048%=      5-min Rain = 0
KDVS 180420Z 18007KT 13/02 A2988 RMK A01 T01310023  RH  049%=      5-min Rain = 0
KDVS 180425Z 18007KT 13/02 A2988 RMK A01 T01300022  RH  048%=      5-min Rain = 0
KDVS 180430Z 17008KT 13/02 A2988 RMK A01 T01290021  RH  049%=      5-min Rain = 0
KDVS 180435Z 17008KT 13/02 A2988 RMK A01 T01310020  RH  048%=      5-min Rain = 0
KDVS 180440Z 17010KT 14/02 A2987 RMK A01 T01390019  RH  045%=      5-min Rain = 0
KDVS 180445Z 17010KT 15/02 A2987 RMK A01 T01470020  RH  043%=      5-min Rain = 0
KDVS 180450Z 17010KT 15/02 A2987 RMK A01 T01520023  RH  042%=      5-min Rain = 0
KDVS 180455Z 17010KT 15/03 A2987 RMK A01 T01540025  RH  042%=      5-min Rain = 0

Page generated in 0.0221 seconds.